Time;durP1;ratioP1;P1;durP2;ratioP2;P2;SDS_P1;SDS_P2;PMS_P1;PMS_P2;Temp;Humidity;BMP_temperature;BMP_pressure;BME280_temperature;BME280_humidity;BME280_pressure;Samples;Min_cycle;Max_cycle;Signal;HPM_P1;HPM_P2
2022/11/07 00:01:30;;;;;;;;;;;;;;;13.80;63.47;98918.66;4495697;31;20331;-84
2022/11/07 00:03:56;;;;;;;;;;;;;;;13.82;63.44;98915.91;4492138;31;20093;-84
2022/11/07 00:06:21;;;;;;;;;;;;;;;13.83;63.44;98914.94;4491350;31;20012;-84
2022/11/07 00:08:48;;;;;;;;;;;;;;;13.82;63.50;98916.75;4497612;31;19987;-84
2022/11/07 00:11:13;;;;;;;;;;;;;;;13.84;63.52;98916.66;4488949;31;19983;-84
2022/11/07 00:13:38;;;;;;;;;;;;;;;13.84;63.47;98906.91;4480488;32;19990;-83
2022/11/07 00:16:05;;;;;;;;;;;;;;;13.81;63.39;98914.19;4478749;31;19975;-84
2022/11/07 00:18:30;;;;;;;;;;;;;;;13.79;63.40;98921.41;4486143;31;20015;-83
2022/11/07 00:20:55;;;;;;;;;;;;;;;13.80;63.44;98926.59;4498074;31;19986;-83
2022/11/07 00:23:21;;;;;;;;;;;;;;;13.76;63.59;98927.75;4475088;31;20113;-84
2022/11/07 00:25:46;;;;;;;;;;;;;;;13.62;63.95;98926.00;4494744;31;20026;-84
2022/11/07 00:28:11;;;;;;;;;;;;;;;13.63;64.03;98926.84;4493114;31;20601;-83
2022/11/07 00:30:36;;;;;;;;;;;;;;;13.66;64.10;98931.97;4489157;31;19990;-84
2022/11/07 00:33:02;;;;;;;;;;;;;;;13.70;63.90;98928.16;4495236;31;19997;-84
2022/11/07 00:35:27;;;;;;;;;;;;;;;13.70;63.99;98934.28;4487625;31;19983;-83
2022/11/07 00:37:53;;;;;;;;;;;;;;;13.76;63.87;98941.00;4479151;32;20255;-81
2022/11/07 00:40:18;;;;;;;;;;;;;;;13.77;63.85;98938.25;4493210;31;20432;-83
2022/11/07 00:42:43;;;;;;;;;;;;;;;13.83;63.77;98936.13;4487518;31;19998;-84
2022/11/07 00:45:10;;;;;;;;;;;;;;;13.84;63.72;98925.44;4482851;31;19983;-83
2022/11/07 00:47:35;;;;;;;;;;;;;;;13.87;63.73;98927.03;4487750;31;20058;-84
2022/11/07 00:50:01;;;;;;;;;;;;;;;13.86;63.80;98928.84;4478490;32;20302;-83
2022/11/07 00:52:26;;;;;;;;;;;;;;;13.87;63.82;98927.91;4494519;31;20007;-84
2022/11/07 00:54:51;;;;;;;;;;;;;;;13.91;63.74;98925.91;4472289;31;20019;-83
2022/11/07 00:57:16;;;;;;;;;;;;;;;13.87;63.87;98924.38;4497556;31;20404;-85
2022/11/07 00:59:42;;;;;;;;;;;;;;;13.89;63.83;98927.81;4475798;31;19987;-85
2022/11/07 01:02:07;;;;;;;;;;;;;;;13.92;63.83;98928.44;4489944;31;20010;-83
2022/11/07 01:07:16;;;;;;;;;;;;;;;13.96;63.88;98929.94;4483961;32;20020;-83
2022/11/07 01:09:41;;;;;;;;;;;;;;;13.98;63.89;98932.47;4480030;32;19980;-83
2022/11/07 01:12:07;;;;;;;;;;;;;;;14.03;63.85;98929.53;4492659;31;19979;-82
2022/11/07 01:14:32;;;;;;;;;;;;;;;14.03;63.86;98926.87;4473082;32;19994;-81
2022/11/07 01:16:57;;;;;;;;;;;;;;;14.04;63.85;98933.87;4496979;31;20326;-81
2022/11/07 01:19:23;;;;;;;;;;;;;;;14.04;63.83;98932.09;4487180;31;21094;-84
2022/11/07 01:21:48;;;;;;;;;;;;;;;14.04;63.66;98940.03;4493706;31;20350;-83
2022/11/07 01:24:13;;;;;;;;;;;;;;;14.03;63.55;98940.13;4492011;31;19989;-84
2022/11/07 01:26:39;;;;;;;;;;;;;;;13.86;63.81;98933.28;4473166;32;20333;-80
2022/11/07 01:29:04;;;;;;;;;;;;;;;13.65;63.95;98925.78;4482303;31;19999;-81
2022/11/07 01:31:30;;;;;;;;;;;;;;;13.55;64.50;98928.19;4474401;31;19967;-81
2022/11/07 01:33:56;;;;;;;;;;;;;;;13.73;64.03;98927.94;4489934;31;20300;-80
2022/11/07 01:36:21;;;;;;;;;;;;;;;13.81;63.92;98923.00;4495149;31;19987;-81
2022/11/07 01:38:52;;;;;;;;;;;;;;;13.84;63.85;98922.78;4485928;31;19976;-80
2022/11/07 01:41:24;;;;;;;;;;;;;;;13.81;63.76;98917.72;4482446;32;20040;-81
2022/11/07 01:43:57;;;;;;;;;;;;;;;13.85;63.84;98924.50;4490793;31;20031;-81
2022/11/07 01:46:41;;;;;;;;;;;;;;;13.90;63.81;98927.69;4461372;32;20319;-82
2022/11/07 01:49:11;;;;;;;;;;;;;;;13.94;63.80;98936.28;4496961;31;19971;-83
2022/11/07 01:51:47;;;;;;;;;;;;;;;13.92;63.86;98932.88;4474255;31;19981;-82
2022/11/07 01:54:14;;;;;;;;;;;;;;;13.86;63.89;98931.47;4461422;32;20025;-82
2022/11/07 01:56:40;;;;;;;;;;;;;;;13.96;63.74;98937.91;4481510;31;20001;-83
2022/11/07 01:59:05;;;;;;;;;;;;;;;13.99;63.63;98936.00;4484579;31;19995;-82
2022/11/07 02:01:30;;;;;;;;;;;;;;;13.99;63.63;98936.84;4479739;32;19972;-82
2022/11/07 02:03:56;;;;;;;;;;;;;;;14.01;63.64;98940.22;4474112;31;19995;-83
2022/11/07 02:06:30;;;;;;;;;;;;;;;14.02;63.63;98941.06;4473668;32;19987;-82
2022/11/07 02:08:55;;;;;;;;;;;;;;;14.03;63.56;98938.31;4468448;31;20022;-82
2022/11/07 02:11:20;;;;;;;;;;;;;;;14.05;63.55;98941.72;4472828;31;20011;-82
2022/11/07 02:13:46;;;;;;;;;;;;;;;14.06;63.59;98938.12;4462629;32;19972;-82
2022/11/07 02:16:11;;;;;;;;;;;;;;;14.07;63.63;98941.63;4479063;31;20020;-81
2022/11/07 02:18:36;;;;;;;;;;;;;;;14.08;63.55;98941.53;4475239;32;20063;-82
2022/11/07 02:21:25;;;;;;;;;;;;;;;14.06;63.50;98937.25;4483683;31;19979;-82
2022/11/07 02:23:50;;;;;;;;;;;;;;;14.03;63.65;98935.66;4468201;31;20077;-82
2022/11/07 02:26:16;;;;;;;;;;;;;;;13.96;63.71;98935.25;4490791;31;19988;-82
2022/11/07 02:28:41;;;;;;;;;;;;;;;14.01;63.68;98937.56;4482977;31;20315;-82
2022/11/07 02:31:06;;;;;;;;;;;;;;;13.99;63.75;98936.00;4474561;31;20012;-82
2022/11/07 02:33:31;;;;;;;;;;;;;;;13.97;63.91;98938.72;4480985;32;19987;-82
2022/11/07 02:35:57;;;;;;;;;;;;;;;13.96;64.05;98929.94;4476681;31;19987;-82
2022/11/07 02:38:23;;;;;;;;;;;;;;;13.98;64.19;98936.94;4490293;31;20035;-82
2022/11/07 02:41:09;;;;;;;;;;;;;;;13.25;66.53;98938.03;4483381;31;19971;-82
2022/11/07 02:43:34;;;;;;;;;;;;;;;13.54;65.93;98937.09;4489195;31;20043;-81
2022/11/07 02:46:00;;;;;;;;;;;;;;;13.72;65.46;98935.03;4465313;32;19988;-81
2022/11/07 02:48:29;;;;;;;;;;;;;;;13.75;65.52;98933.97;4480980;31;21592;-82
2022/11/07 02:50:55;;;;;;;;;;;;;;;13.83;65.25;98929.06;4472307;31;19972;-81
2022/11/07 02:53:20;;;;;;;;;;;;;;;13.95;64.82;98932.69;4495478;31;20018;-80
2022/11/07 02:55:45;;;;;;;;;;;;;;;13.93;64.81;98927.50;4474922;31;19995;-82
2022/11/07 02:58:11;;;;;;;;;;;;;;;13.77;65.42;98919.72;4464296;32;20003;-81
2022/11/07 03:00:36;;;;;;;;;;;;;;;13.84;65.27;98932.53;4482171;31;19995;-81
2022/11/07 03:03:01;;;;;;;;;;;;;;;13.91;65.11;98931.19;4474045;31;19983;-82
2022/11/07 03:05:26;;;;;;;;;;;;;;;14.02;64.79;98928.66;4496370;31;20031;-81
2022/11/07 03:07:52;;;;;;;;;;;;;;;13.97;65.10;98917.53;4477478;31;20113;-81
2022/11/07 03:10:17;;;;;;;;;;;;;;;14.03;64.97;98921.59;4491143;31;20019;-80
2022/11/07 03:12:42;;;;;;;;;;;;;;;14.08;64.79;98917.69;4497589;31;19967;-81
2022/11/07 03:15:11;;;;;;;;;;;;;;;14.17;64.61;98910.91;4487530;31;20247;-80
2022/11/07 03:17:36;;;;;;;;;;;;;;;14.26;64.31;98912.09;4480398;32;19995;-81
2022/11/07 03:20:02;;;;;;;;;;;;;;;14.29;64.22;98910.09;4493073;31;19994;-80
2022/11/07 03:22:28;;;;;;;;;;;;;;;14.31;64.10;98912.63;4475301;32;19986;-82
2022/11/07 03:24:53;;;;;;;;;;;;;;;14.31;64.08;98917.91;4497388;31;19975;-82
2022/11/07 03:27:18;;;;;;;;;;;;;;;14.30;64.16;98914.41;4474188;31;20069;-80
2022/11/07 03:29:44;;;;;;;;;;;;;;;14.32;64.12;98924.94;4479596;32;19982;-81
2022/11/07 03:32:09;;;;;;;;;;;;;;;14.35;64.01;98925.56;4493899;31;20002;-81
2022/11/07 03:34:34;;;;;;;;;;;;;;;14.34;63.90;98929.16;4474358;32;19995;-81
2022/11/07 03:37:00;;;;;;;;;;;;;;;14.35;63.89;98930.00;4483129;31;20007;-80
2022/11/07 03:39:25;;;;;;;;;;;;;;;14.34;63.89;98923.03;4489143;31;19993;-80
2022/11/07 03:41:50;;;;;;;;;;;;;;;14.36;63.90;98923.75;4493757;31;20040;-80
2022/11/07 03:44:15;;;;;;;;;;;;;;;14.38;63.91;98926.31;4494067;31;20655;-81
2022/11/07 03:46:41;;;;;;;;;;;;;;;14.20;64.44;98921.31;4462101;32;20107;-81
2022/11/07 03:49:06;;;;;;;;;;;;;;;14.11;64.98;98924.56;4482271;31;20039;-82
2022/11/07 03:51:31;;;;;;;;;;;;;;;14.24;64.27;98922.78;4489919;31;20308;-81
2022/11/07 03:53:57;;;;;;;;;;;;;;;14.32;63.80;98923.12;4493129;31;20002;-81
2022/11/07 03:56:22;;;;;;;;;;;;;;;14.35;63.66;98927.34;4493910;31;19983;-81
2022/11/07 03:58:47;;;;;;;;;;;;;;;14.33;63.53;98922.19;4473435;31;19971;-81
2022/11/07 04:01:13;;;;;;;;;;;;;;;14.33;63.42;98930.12;4495584;31;20008;-81
2022/11/07 04:03:38;;;;;;;;;;;;;;;14.33;63.47;98929.25;4489777;31;19999;-81
2022/11/07 04:06:03;;;;;;;;;;;;;;;14.34;63.43;98938.91;4492163;31;20034;-82
2022/11/07 04:08:29;;;;;;;;;;;;;;;14.33;63.54;98934.56;4480586;31;20028;-82
2022/11/07 04:10:54;;;;;;;;;;;;;;;14.32;63.63;98941.66;4487537;31;20299;-83
2022/11/07 04:18:47;;;;;;;;;;;;;;;14.31;63.65;98955.88;4473071;31;20043;-83
2022/11/07 04:21:12;;;;;;;;;;;;;;;14.25;63.72;98958.91;4496789;31;19979;-82
2022/11/07 04:23:37;;;;;;;;;;;;;;;14.22;63.82;98958.31;4489952;31;19983;-82
2022/11/07 04:28:46;;;;;;;;;;;;;;;14.16;64.01;98952.44;4498858;31;20305;-82
2022/11/07 04:31:11;;;;;;;;;;;;;;;14.11;64.22;98956.34;4486898;31;19995;-84
2022/11/07 04:33:37;;;;;;;;;;;;;;;14.18;64.08;98954.13;4493725;31;19976;-82
2022/11/07 04:36:02;;;;;;;;;;;;;;;14.18;64.02;98948.84;4492039;31;20022;-84
2022/11/07 04:38:27;;;;;;;;;;;;;;;14.05;64.59;98949.66;4474647;32;20243;-85
2022/11/07 04:40:56;;;;;;;;;;;;;;;14.14;64.34;98946.41;4487265;32;19963;-85
2022/11/07 04:43:22;;;;;;;;;;;;;;;14.15;64.23;98944.59;4487481;32;19972;-84
2022/11/07 04:45:47;;;;;;;;;;;;;;;14.12;64.32;98948.31;4487374;32;20002;-84
2022/11/07 04:48:12;;;;;;;;;;;;;;;14.08;64.32;98946.81;4487208;32;19964;-84
2022/11/07 04:50:38;;;;;;;;;;;;;;;14.13;64.33;98941.22;4487236;32;19967;-84
2022/11/07 04:53:03;;;;;;;;;;;;;;;14.13;64.32;98933.25;4473009;32;19995;-83
2022/11/07 04:55:31;;;;;;;;;;;;;;;14.15;64.31;98931.34;4487062;32;19987;-83
2022/11/07 04:57:56;;;;;;;;;;;;;;;14.12;64.37;98943.00;4487180;32;19959;-83
2022/11/07 05:00:22;;;;;;;;;;;;;;;14.08;64.54;98943.31;4487194;32;20332;-83
2022/11/07 05:02:47;;;;;;;;;;;;;;;14.05;64.70;98944.38;4487131;32;20002;-83
2022/11/07 05:05:13;;;;;;;;;;;;;;;14.09;64.74;98942.37;4472706;32;19992;-83
2022/11/07 05:07:38;;;;;;;;;;;;;;;14.10;64.75;98944.91;4486993;32;20324;-84
2022/11/07 05:10:04;;;;;;;;;;;;;;;13.69;66.16;98942.31;4487006;32;19992;-84
2022/11/07 05:12:29;;;;;;;;;;;;;;;13.59;66.49;98951.81;4472716;32;19996;-83
2022/11/07 05:14:54;;;;;;;;;;;;;;;13.80;65.68;98955.72;4486935;32;20007;-83
2022/11/07 05:17:20;;;;;;;;;;;;;;;13.74;65.86;98950.84;4486988;32;19972;-83
2022/11/07 05:19:46;;;;;;;;;;;;;;;13.85;65.49;98952.75;4472658;32;19983;-83
2022/11/07 05:24:56;;;;;;;;;;;;;;;13.98;65.19;98952.81;4486951;32;20048;-84
2022/11/07 05:27:21;;;;;;;;;;;;;;;14.01;65.15;98942.03;4486760;32;19972;-83
2022/11/07 05:29:46;;;;;;;;;;;;;;;14.07;64.96;98950.41;4472443;32;20022;-83
2022/11/07 05:32:12;;;;;;;;;;;;;;;13.68;66.19;98954.72;4486699;32;20338;-83
2022/11/07 05:34:38;;;;;;;;;;;;;;;13.87;65.63;98950.84;4472302;32;19983;-83
2022/11/07 05:37:05;;;;;;;;;;;;;;;13.93;65.46;98943.38;4459381;32;19995;-84
2022/11/07 05:39:31;;;;;;;;;;;;;;;14.06;65.11;98950.50;4486612;32;19982;-84
2022/11/07 05:41:56;;;;;;;;;;;;;;;14.09;65.02;98958.25;4486687;32;20278;-84
2022/11/07 05:44:21;;;;;;;;;;;;;;;14.12;64.80;98963.38;4472307;32;20003;-84
2022/11/07 05:46:46;;;;;;;;;;;;;;;14.16;64.63;98968.34;4486466;32;20011;-84
2022/11/07 05:49:12;;;;;;;;;;;;;;;14.18;64.57;98975.31;4487106;32;19968;-86
2022/11/07 05:51:42;;;;;;;;;;;;;;;14.19;64.51;98982.34;4474170;32;19995;-86
2022/11/07 05:54:07;;;;;;;;;;;;;;;14.11;64.63;98978.38;4488396;32;20060;-86
2022/11/07 05:56:32;;;;;;;;;;;;;;;14.08;64.70;98983.03;4488486;32;19967;-86
2022/11/07 05:58:58;;;;;;;;;;;;;;;14.18;64.43;98989.44;4488421;32;20304;-86
2022/11/07 06:01:23;;;;;;;;;;;;;;;13.91;65.19;98995.59;4488518;32;19980;-84
2022/11/07 06:03:48;;;;;;;;;;;;;;;14.15;64.13;98997.59;4488416;32;20016;-84
2022/11/07 06:06:13;;;;;;;;;;;;;;;14.18;64.17;98997.41;4474384;32;19971;-83
2022/11/07 06:08:39;;;;;;;;;;;;;;;14.20;64.23;98998.16;4488564;32;20327;-83
2022/11/07 06:11:04;;;;;;;;;;;;;;;14.25;64.13;98998.66;4488562;32;19999;-83
2022/11/07 06:13:30;;;;;;;;;;;;;;;14.31;64.04;99006.25;4474321;32;19989;-82
2022/11/07 06:15:56;;;;;;;;;;;;;;;14.33;64.04;99009.63;4488550;32;19963;-84
2022/11/07 06:18:21;;;;;;;;;;;;;;;14.39;64.00;99002.19;4488643;32;19983;-83
2022/11/07 06:20:46;;;;;;;;;;;;;;;14.19;64.34;99006.19;4474120;32;20023;-87
2022/11/07 06:23:11;;;;;;;;;;;;;;;13.88;65.17;99008.19;4488565;32;19980;-87
2022/11/07 06:25:37;;;;;;;;;;;;;;;14.01;64.74;99011.75;4474250;32;20021;-85
2022/11/07 06:28:04;;;;;;;;;;;;;;;14.27;63.89;99025.06;4488433;32;19987;-86
2022/11/07 06:30:29;;;;;;;;;;;;;;;14.18;64.00;99021.25;4488459;32;20263;-86
2022/11/07 06:32:54;;;;;;;;;;;;;;;14.21;63.96;99026.31;4488298;32;19987;-85
2022/11/07 06:35:20;;;;;;;;;;;;;;;14.11;64.33;99033.19;4461083;32;19965;-84
2022/11/07 06:37:45;;;;;;;;;;;;;;;14.28;63.89;99035.56;4488500;32;20311;-93
2022/11/07 06:40:10;;;;;;;;;;;;;;;14.38;63.75;99041.13;4488513;32;19997;-87
2022/11/07 06:42:36;;;;;;;;;;;;;;;14.48;63.60;99044.00;4488486;32;19968;-82
2022/11/07 06:45:01;;;;;;;;;;;;;;;14.58;63.46;99050.41;4488409;32;20001;-82
2022/11/07 06:47:26;;;;;;;;;;;;;;;14.60;63.51;99051.16;4488384;32;20026;-83
2022/11/07 06:49:51;;;;;;;;;;;;;;;14.70;63.32;99057.56;4488297;32;19971;-83
2022/11/07 06:52:17;;;;;;;;;;;;;;;14.62;63.30;99054.59;4488394;32;20170;-82
2022/11/07 06:54:42;;;;;;;;;;;;;;;14.74;63.08;99058.22;4488208;32;19976;-82
2022/11/07 06:57:08;;;;;;;;;;;;;;;14.88;62.69;99055.47;4488284;32;19986;-83
2022/11/07 06:59:33;;;;;;;;;;;;;;;14.99;62.45;99062.69;4485736;31;20025;-83
2022/11/07 07:01:58;;;;;;;;;;;;;;;15.06;62.26;99060.47;4497034;31;19995;-84
2022/11/07 07:04:23;;;;;;;;;;;;;;;15.05;62.40;99058.78;4470753;32;20003;-82
2022/11/07 07:06:49;;;;;;;;;;;;;;;15.06;62.44;99061.31;4481270;31;20039;-86
2022/11/07 07:09:14;;;;;;;;;;;;;;;15.16;62.22;99063.34;4493099;31;19980;-86
2022/11/07 07:11:41;;;;;;;;;;;;;;;15.17;62.25;99065.03;4485878;31;19980;-85
2022/11/07 07:14:07;;;;;;;;;;;;;;;15.21;62.26;99067.38;4473289;31;19995;-85
2022/11/07 07:16:32;;;;;;;;;;;;;;;15.22;62.18;99066.44;4497696;31;19995;-86
2022/11/07 07:18:57;;;;;;;;;;;;;;;15.24;62.29;99072.47;4477398;32;20017;-85
2022/11/07 07:21:22;;;;;;;;;;;;;;;14.85;63.33;99073.38;4495036;31;20026;-87
2022/11/07 07:23:48;;;;;;;;;;;;;;;15.18;62.28;99072.88;4488659;31;20030;-86
2022/11/07 07:26:14;;;;;;;;;;;;;;;15.29;61.92;99075.62;4499055;31;19960;-86
2022/11/07 07:28:39;;;;;;;;;;;;;;;14.96;62.70;99077.97;4474317;31;19988;-86
2022/11/07 07:31:07;;;;;;;;;;;;;;;14.84;62.64;99077.00;4497568;31;19998;-87
2022/11/07 07:33:33;;;;;;;;;;;;;;;15.07;62.17;99078.09;4503331;31;20350;-85
2022/11/07 07:35:58;;;;;;;;;;;;;;;14.82;63.32;99074.44;4489111;31;19983;-86
2022/11/07 07:38:23;;;;;;;;;;;;;;;14.99;62.39;99081.28;4503516;31;19990;-87
2022/11/07 07:40:48;;;;;;;;;;;;;;;14.21;64.10;99084.63;4503409;31;20307;-87
2022/11/07 07:43:14;;;;;;;;;;;;;;;14.63;62.91;99077.47;4489085;31;20021;-87
2022/11/07 07:45:39;;;;;;;;;;;;;;;14.84;62.58;99082.31;4503425;31;19983;-87
2022/11/07 07:48:04;;;;;;;;;;;;;;;14.82;62.31;99086.87;4503606;31;20280;-87
2022/11/07 07:50:30;;;;;;;;;;;;;;;14.63;62.70;99085.44;4503581;31;19979;-86
2022/11/07 07:52:58;;;;;;;;;;;;;;;14.74;62.73;99085.56;4488850;31;19993;-87
2022/11/07 07:55:24;;;;;;;;;;;;;;;15.13;61.74;99081.16;4503346;31;20043;-87
2022/11/07 07:57:49;;;;;;;;;;;;;;;14.96;62.31;99081.47;4488943;31;19994;-87
2022/11/07 08:00:14;;;;;;;;;;;;;;;15.50;60.72;99086.56;4503435;31;19975;-86
2022/11/07 08:02:42;;;;;;;;;;;;;;;15.44;60.68;99087.00;4503458;31;20273;-87
2022/11/07 08:05:12;;;;;;;;;;;;;;;15.64;60.37;99087.41;4489286;31;19967;-87
2022/11/07 08:07:44;;;;;;;;;;;;;;;15.21;60.81;99083.28;4489005;31;20002;-87
2022/11/07 08:10:09;;;;;;;;;;;;;;;15.09;61.12;99084.16;4475446;31;20335;-87
2022/11/07 08:12:34;;;;;;;;;;;;;;;14.77;62.37;99081.84;4503072;31;19990;-87
2022/11/07 08:15:00;;;;;;;;;;;;;;;14.99;61.61;99086.56;4503247;31;20224;-87
2022/11/07 08:17:25;;;;;;;;;;;;;;;15.46;60.58;99086.91;4503237;31;20001;-87
2022/11/07 08:19:50;;;;;;;;;;;;;;;15.63;59.97;99080.41;4503339;31;19976;-87
2022/11/07 08:22:15;;;;;;;;;;;;;;;14.96;61.91;99081.47;4503295;31;19976;-87
2022/11/07 08:24:42;;;;;;;;;;;;;;;15.36;61.07;99075.25;4488936;31;19999;-87
2022/11/07 08:27:07;;;;;;;;;;;;;;;15.00;61.49;99076.81;4503199;31;20261;-87
2022/11/07 08:29:32;;;;;;;;;;;;;;;15.46;60.74;99070.97;4503284;31;19972;-87
2022/11/07 08:31:57;;;;;;;;;;;;;;;15.81;59.68;99075.62;4488939;31;20343;-87
2022/11/07 08:34:23;;;;;;;;;;;;;;;15.80;59.32;99074.78;4502855;31;19963;-86
2022/11/07 08:36:48;;;;;;;;;;;;;;;16.08;58.53;99073.63;4503216;31;19990;-87
2022/11/07 08:39:13;;;;;;;;;;;;;;;16.23;58.20;99074.31;4503101;31;19994;-87
2022/11/07 08:41:38;;;;;;;;;;;;;;;15.72;58.70;99083.28;4503038;31;19975;-86
2022/11/07 08:44:04;;;;;;;;;;;;;;;16.09;58.09;99069.19;4502894;31;19972;-87
2022/11/07 08:46:29;;;;;;;;;;;;;;;16.14;57.95;99075.00;4503075;31;19990;-87
2022/11/07 08:48:54;;;;;;;;;;;;;;;16.17;57.88;99076.56;4503084;31;19982;-87
2022/11/07 08:51:19;;;;;;;;;;;;;;;16.21;57.99;99081.56;4488719;31;20050;-87
2022/11/07 08:53:45;;;;;;;;;;;;;;;16.21;57.57;99081.56;4502960;31;19986;-87
2022/11/07 08:56:10;;;;;;;;;;;;;;;16.51;56.62;99089.09;4488548;31;20247;-87
2022/11/07 08:58:36;;;;;;;;;;;;;;;16.39;57.35;99089.16;4502896;31;19975;-87
2022/11/07 09:01:04;;;;;;;;;;;;;;;16.42;56.63;99089.78;4488602;31;19986;-87
2022/11/07 09:03:29;;;;;;;;;;;;;;;16.68;56.00;99090.47;4488601;31;20325;-87
2022/11/07 09:05:55;;;;;;;;;;;;;;;16.66;56.26;99099.53;4502876;31;19983;-87
2022/11/07 09:08:20;;;;;;;;;;;;;;;16.73;56.13;99103.44;4502860;31;19998;-87
2022/11/07 09:10:46;;;;;;;;;;;;;;;16.67;56.07;99096.78;4502781;31;20337;-87
2022/11/07 09:13:13;;;;;;;;;;;;;;;16.80;55.71;99101.16;4488306;31;19967;-87
2022/11/07 09:15:38;;;;;;;;;;;;;;;16.86;55.81;99098.94;4502678;31;19983;-84
2022/11/07 09:18:04;;;;;;;;;;;;;;;16.77;55.19;99102.25;4488316;31;20262;-84
2022/11/07 09:20:29;;;;;;;;;;;;;;;16.83;54.45;99108.97;4502799;31;19976;-84
2022/11/07 09:22:55;;;;;;;;;;;;;;;16.92;54.63;99102.94;4488189;31;20016;-84
2022/11/07 09:25:20;;;;;;;;;;;;;;;16.80;54.85;99111.81;4501814;31;20331;-84
2022/11/07 09:27:46;;;;;;;;;;;;;;;16.85;54.84;99101.72;4502649;31;20031;-84
2022/11/07 09:30:11;;;;;;;;;;;;;;;16.86;55.18;99100.72;4488223;31;19986;-85
2022/11/07 09:32:36;;;;;;;;;;;;;;;16.79;54.38;99102.13;4502481;31;20262;-85
2022/11/07 09:35:02;;;;;;;;;;;;;;;16.79;53.86;99107.47;4502341;31;19971;-84
2022/11/07 09:37:27;;;;;;;;;;;;;;;16.80;53.80;99112.66;4487959;31;20003;-84
2022/11/07 09:39:52;;;;;;;;;;;;;;;16.78;53.92;99111.06;4502482;31;19980;-84
2022/11/07 09:42:36;;;;;;;;;;;;;;;16.81;53.82;99109.03;4502405;31;19963;-84
2022/11/07 09:45:02;;;;;;;;;;;;;;;16.60;54.18;99105.31;4502540;31;20037;-84
2022/11/07 09:47:44;;;;;;;;;;;;;;;16.08;55.73;99113.47;4488334;31;20011;-86
2022/11/07 09:50:11;;;;;;;;;;;;;;;16.39;55.26;99115.72;4502573;31;19975;-85
2022/11/07 09:52:46;;;;;;;;;;;;;;;15.62;56.57;99115.88;4488420;31;20291;-84
2022/11/07 09:55:17;;;;;;;;;;;;;;;16.17;55.89;99105.81;4488108;31;19998;-84
2022/11/07 09:57:43;;;;;;;;;;;;;;;16.43;55.58;99112.72;4502295;31;19972;-84
2022/11/07 10:00:18;;;;;;;;;;;;;;;16.24;56.80;99109.72;4502149;31;19990;-84
2022/11/07 10:02:44;;;;;;;;;;;;;;;15.93;56.60;99119.91;4502170;31;19975;-84
2022/11/07 10:05:12;;;;;;;;;;;;;;;15.71;56.71;99118.75;4487909;31;20064;-85
2022/11/07 10:07:56;;;;;;;;;;;;;;;15.82;56.40;99119.81;4502131;31;19990;-85
2022/11/07 10:10:24;;;;;;;;;;;;;;;15.42;57.36;99110.16;4502047;31;20446;-84
2022/11/07 10:13:08;;;;;;;;;;;;;;;15.62;56.81;99107.91;4501969;31;19967;-85
2022/11/07 10:15:44;;;;;;;;;;;;;;;15.64;56.90;99112.16;4501804;31;19983;-84
2022/11/07 10:18:47;;;;;;;;;;;;;;;15.77;56.05;99106.88;4487675;31;20007;-84
2022/11/07 10:21:24;;;;;;;;;;;;;;;15.87;56.49;99099.09;4424434;32;19985;-85
2022/11/07 10:23:57;;;;;;;;;;;;;;;15.66;57.08;99106.75;4424536;32;20008;-87
2022/11/07 10:26:23;;;;;;;;;;;;;;;15.95;55.92;99101.19;4424466;32;20004;-87
2022/11/07 10:28:58;;;;;;;;;;;;;;;15.39;57.86;99104.22;4424478;32;19992;-87
2022/11/07 10:31:26;;;;;;;;;;;;;;;15.91;56.39;99098.75;4424460;32;20336;-87
2022/11/07 10:33:51;;;;;;;;;;;;;;;15.45;57.47;99102.00;4423977;32;19985;-87
2022/11/07 10:36:24;;;;;;;;;;;;;;;15.50;57.20;99091.03;4438755;32;20379;-87
2022/11/07 10:38:49;;;;;;;;;;;;;;;15.21;58.11;99091.25;4439250;32;20020;-87
2022/11/07 10:41:17;;;;;;;;;;;;;;;15.49;57.75;99084.03;4426420;32;20382;-88
2022/11/07 10:43:43;;;;;;;;;;;;;;;15.75;57.76;99079.56;4439234;32;19984;-87
2022/11/07 10:46:22;;;;;;;;;;;;;;;15.41;58.00;99086.37;4426325;32;20014;-87
2022/11/07 10:48:57;;;;;;;;;;;;;;;15.26;58.04;99086.50;4426259;32;20055;-87
2022/11/07 10:51:52;;;;;;;;;;;;;;;14.97;59.02;99087.63;4455557;31;19971;-87
2022/11/07 10:54:19;;;;;;;;;;;;;;;15.52;58.29;99075.84;4489977;31;19990;-87
2022/11/07 10:56:45;;;;;;;;;;;;;;;15.36;57.94;99083.19;4489587;31;20010;-87
2022/11/07 10:59:20;;;;;;;;;;;;;;;15.57;57.56;99080.81;4489592;31;20335;-87
2022/11/07 11:01:49;;;;;;;;;;;;;;;15.67;57.16;99076.59;4489539;31;19990;-87
2022/11/07 11:04:24;;;;;;;;;;;;;;;15.33;57.51;99068.31;4489509;31;19986;-84
2022/11/07 11:06:56;;;;;;;;;;;;;;;15.63;57.12;99073.28;4489563;31;19987;-84
2022/11/07 11:09:22;;;;;;;;;;;;;;;15.80;56.43;99071.25;4489530;31;19984;-84
2022/11/07 11:11:49;;;;;;;;;;;;;;;15.91;55.99;99072.19;4503699;31;20013;-86
2022/11/07 11:14:17;;;;;;;;;;;;;;;15.81;55.96;99068.50;4489358;31;19986;-84
2022/11/07 11:16:43;;;;;;;;;;;;;;;15.67;56.55;99060.66;4503738;31;20326;-84
2022/11/07 11:19:19;;;;;;;;;;;;;;;15.83;56.12;99057.75;4489426;31;20002;-85
2022/11/07 11:21:45;;;;;;;;;;;;;;;15.99;55.19;99047.72;4489526;31;19991;-84
2022/11/07 11:24:21;;;;;;;;;;;;;;;15.90;55.57;99057.22;4503667;31;19982;-84
2022/11/07 11:26:47;;;;;;;;;;;;;;;15.77;55.97;99050.25;4489453;31;20040;-84
2022/11/07 11:29:16;;;;;;;;;;;;;;;15.63;56.19;99049.38;4489471;31;19988;-84
2022/11/07 11:31:50;;;;;;;;;;;;;;;15.88;55.66;99043.19;4489254;31;19979;-84
2022/11/07 11:34:28;;;;;;;;;;;;;;;15.73;56.54;99047.78;4475934;31;19972;-84
2022/11/07 11:37:13;;;;;;;;;;;;;;;15.94;55.95;99047.22;4503588;31;20581;-85
2022/11/07 11:39:46;;;;;;;;;;;;;;;15.65;56.86;99052.78;4503592;31;19983;-84
2022/11/07 11:42:17;;;;;;;;;;;;;;;15.18;58.01;99053.47;4489253;31;20161;-85
2022/11/07 11:44:43;;;;;;;;;;;;;;;15.01;58.99;99060.78;4489307;31;19972;-84
2022/11/07 11:47:11;;;;;;;;;;;;;;;15.48;57.25;99058.44;4475504;31;20043;-84
2022/11/07 11:49:38;;;;;;;;;;;;;;;15.49;56.79;99052.16;4503503;31;20353;-84
2022/11/07 11:52:08;;;;;;;;;;;;;;;15.44;57.20;99051.66;4489090;31;20318;-84
2022/11/07 11:54:34;;;;;;;;;;;;;;;15.33;57.30;99052.38;4488983;31;20268;-85
2022/11/07 11:57:03;;;;;;;;;;;;;;;14.85;59.26;99053.00;4489172;31;20044;-84
2022/11/07 11:59:35;;;;;;;;;;;;;;;15.16;58.53;99042.09;4489109;31;19980;-84
2022/11/07 12:02:19;;;;;;;;;;;;;;;15.14;59.12;99043.06;4503428;31;19979;-85
2022/11/07 12:05:04;;;;;;;;;;;;;;;14.87;59.46;99037.00;4503666;31;19994;-84
2022/11/07 12:07:48;;;;;;;;;;;;;;;14.86;59.33;99036.16;4438382;32;19992;-84
2022/11/07 12:10:32;;;;;;;;;;;;;;;15.02;58.48;99035.09;4438643;32;20053;-84
2022/11/07 12:13:06;;;;;;;;;;;;;;;14.98;58.89;99037.12;4425820;32;20020;-84
2022/11/07 12:15:48;;;;;;;;;;;;;;;15.23;57.96;99030.12;4425809;32;20423;-84
2022/11/07 12:18:31;;;;;;;;;;;;;;;14.74;59.45;99040.50;4425663;32;20008;-84
2022/11/07 12:21:15;;;;;;;;;;;;;;;14.88;59.28;99044.84;4425678;32;19989;-84
2022/11/07 12:23:52;;;;;;;;;;;;;;;15.14;58.89;99032.47;4438571;32;19976;-84
2022/11/07 12:26:30;;;;;;;;;;;;;;;14.51;60.50;99039.34;4438511;32;19973;-84
2022/11/07 12:28:55;;;;;;;;;;;;;;;15.19;58.50;99033.94;4438523;32;20320;-87
2022/11/07 12:31:23;;;;;;;;;;;;;;;15.05;58.47;99037.56;4438495;32;20012;-87
2022/11/07 12:34:01;;;;;;;;;;;;;;;15.44;57.99;99025.09;4438275;32;19980;-85
2022/11/07 12:36:29;;;;;;;;;;;;;;;15.07;59.13;99033.84;4425683;32;20313;-86
2022/11/07 12:38:54;;;;;;;;;;;;;;;15.37;57.76;99039.75;4438426;32;19989;-85
2022/11/07 12:41:23;;;;;;;;;;;;;;;15.43;57.87;99028.69;4438527;32;20012;-85
2022/11/07 12:43:58;;;;;;;;;;;;;;;14.99;58.16;99024.69;4436142;31;20361;-86
2022/11/07 12:46:42;;;;;;;;;;;;;;;15.25;58.13;99028.19;4503155;31;20362;-86
2022/11/07 12:49:26;;;;;;;;;;;;;;;15.40;57.35;99023.63;4503145;31;19971;-85
2022/11/07 12:52:09;;;;;;;;;;;;;;;15.64;56.85;99019.19;4503300;31;19987;-85
2022/11/07 12:54:52;;;;;;;;;;;;;;;15.78;56.50;99023.56;4502945;31;19990;-85
2022/11/07 12:57:19;;;;;;;;;;;;;;;15.60;57.32;99017.72;4503004;31;19963;-85
2022/11/07 12:59:47;;;;;;;;;;;;;;;15.51;56.47;99021.03;4474230;31;19991;-85
2022/11/07 13:02:22;;;;;;;;;;;;;;;15.56;56.87;99026.88;4502982;31;19972;-85
2022/11/07 13:04:50;;;;;;;;;;;;;;;15.85;55.99;99021.31;4502860;31;19971;-85